createdAt,value
2018-03-22T09:47:47.682Z,59.11
2018-03-22T09:48:32.399Z,59.21
2018-03-22T09:49:17.096Z,59.02
2018-03-22T09:50:01.798Z,58.83
2018-03-22T09:50:46.507Z,58.83
2018-03-22T09:51:31.241Z,58.73
2018-03-22T09:52:15.970Z,59.88
2018-03-22T09:53:00.676Z,61.20
2018-03-22T09:53:45.436Z,61.30
2018-03-22T09:54:30.094Z,60.16
2018-03-22T09:55:14.827Z,60.06
2018-03-22T09:55:59.551Z,59.40
2018-03-22T09:56:44.263Z,59.02
2018-03-22T09:57:28.963Z,58.26
2018-03-22T09:58:13.677Z,58.10
2018-03-22T09:58:58.387Z,58.00
2018-03-22T09:59:43.089Z,57.15
2018-03-22T10:00:27.801Z,57.06
2018-03-22T10:01:12.510Z,56.39
2018-03-22T10:01:57.268Z,56.01
2018-03-22T10:02:42.001Z,56.32
2018-03-22T10:03:26.708Z,55.85
2018-03-22T10:04:11.422Z,56.23
2018-03-22T10:04:56.154Z,55.66
2018-03-22T10:05:40.867Z,55.37
2018-03-22T10:06:25.578Z,55.37
2018-03-22T10:07:10.308Z,54.83
2018-03-22T10:07:55.023Z,54.83
2018-03-22T10:08:39.760Z,55.21
2018-03-22T10:09:24.469Z,55.59
2018-03-22T10:10:09.167Z,55.88
2018-03-22T10:10:53.880Z,56.07
2018-03-22T10:11:38.589Z,56.26
2018-03-22T10:12:23.355Z,56.16
2018-03-22T10:13:08.129Z,56.26
2018-03-22T10:13:52.839Z,56.26
2018-03-22T10:14:37.548Z,56.83
2018-03-22T10:15:22.304Z,56.63
2018-03-22T10:16:07.015Z,56.67
2018-03-22T10:16:51.724Z,56.67
2018-03-22T10:17:36.414Z,56.95
2018-03-22T10:18:21.131Z,56.29
2018-03-22T10:19:05.838Z,56.29
2018-03-22T10:19:50.574Z,56.00
2018-03-22T10:20:35.284Z,56.12
2018-03-22T10:21:19.989Z,55.65
2018-03-22T10:22:04.700Z,55.36
2018-03-22T10:22:49.418Z,55.01
2018-03-22T10:23:34.163Z,54.82
2018-03-22T10:24:18.876Z,54.35
2018-03-22T10:25:03.579Z,54.15
2018-03-22T10:25:48.292Z,53.96
2018-03-22T10:26:33.101Z,54.06
2018-03-22T10:27:17.785Z,54.06
2018-03-22T10:28:02.489Z,54.06
2018-03-22T10:28:47.206Z,54.27
2018-03-22T10:29:31.946Z,54.18
2018-03-22T10:30:16.683Z,54.08
2018-03-22T10:31:01.414Z,53.99
2018-03-22T10:31:46.129Z,53.23
2018-03-22T10:32:30.837Z,52.97
2018-03-22T10:33:15.551Z,53.16
2018-03-22T10:34:00.289Z,52.68
2018-03-22T10:34:44.995Z,52.78
2018-03-22T10:35:29.709Z,52.11
2018-03-22T10:36:14.418Z,52.11
2018-03-22T10:36:59.131Z,52.01
2018-03-22T10:37:43.865Z,51.92
2018-03-22T10:38:28.579Z,52.11
2018-03-22T10:39:13.288Z,52.47
2018-03-22T10:39:58.002Z,52.18
2018-03-22T10:40:42.736Z,52.09
2018-03-22T10:41:27.446Z,51.70
2018-03-22T10:42:12.160Z,51.51
2018-03-22T10:42:56.894Z,51.70
2018-03-22T10:43:41.607Z,51.70
2018-03-22T10:44:26.320Z,51.61
2018-03-22T10:45:11.028Z,51.78
2018-03-22T10:45:55.742Z,51.58
2018-03-22T10:46:40.474Z,52.53
2018-03-22T10:47:25.185Z,52.92
2018-03-22T10:48:09.897Z,52.82
2018-03-22T10:48:54.608Z,53.01
2018-03-22T10:49:39.389Z,53.11
2018-03-22T10:50:24.102Z,53.11
2018-03-22T10:51:08.815Z,53.11
2018-03-22T10:51:53.550Z,52.63
2018-03-22T10:52:38.284Z,53.01
2018-03-22T10:53:22.993Z,52.72
2018-03-22T10:54:07.726Z,53.11
2018-03-22T10:54:52.435Z,53.11
2018-03-22T10:55:37.143Z,53.11
2018-03-22T10:56:21.858Z,53.11
2018-03-22T10:57:06.599Z,53.20
2018-03-22T10:57:51.327Z,53.11
2018-03-22T10:58:36.035Z,53.58
2018-03-22T10:59:20.745Z,52.34
2018-03-22T11:00:05.454Z,52.72
2018-03-22T11:00:50.167Z,52.15
2018-03-22T11:01:34.875Z,51.87
2018-03-22T11:02:19.610Z,51.68
2018-03-22T11:03:04.375Z,51.68
2018-03-22T11:03:49.077Z,52.06
2018-03-22T11:04:33.786Z,52.25
2018-03-22T11:05:18.497Z,52.15
2018-03-22T11:06:03.208Z,52.72
2018-03-22T11:06:47.918Z,52.92
2018-03-22T11:07:32.651Z,53.20
2018-03-22T11:08:17.359Z,53.20
2018-03-22T11:09:02.073Z,53.30
